createdAt,value
2018-10-21T00:00:44.642Z,78.90
2018-10-21T00:03:13.636Z,79.00
2018-10-21T00:05:42.095Z,79.20
2018-10-21T00:08:11.501Z,79.20
2018-10-21T00:10:44.163Z,79.10
2018-10-21T00:13:12.803Z,79.10
2018-10-21T00:15:41.478Z,79.30
2018-10-21T00:18:10.095Z,79.30
2018-10-21T00:20:38.728Z,79.40
2018-10-21T00:23:07.360Z,79.40
2018-10-21T00:25:54.638Z,79.30
2018-10-21T00:28:23.210Z,79.30
2018-10-21T00:30:52.006Z,79.40
2018-10-21T00:33:22.301Z,79.40
2018-10-21T00:35:50.952Z,79.50
2018-10-21T00:38:19.528Z,79.30
2018-10-21T00:40:48.155Z,79.20
2018-10-21T00:43:16.718Z,79.20
2018-10-21T00:45:45.306Z,79.30
2018-10-21T00:48:13.889Z,79.20
2018-10-21T00:50:42.428Z,79.20
2018-10-21T00:53:10.991Z,79.40
2018-10-21T00:55:43.389Z,79.40
2018-10-21T00:58:12.118Z,79.30
2018-10-21T01:00:40.842Z,79.40
2018-10-21T01:03:09.351Z,79.50
2018-10-21T01:05:37.963Z,79.40
2018-10-21T01:08:06.571Z,79.40
2018-10-21T01:10:35.047Z,79.40
2018-10-21T01:15:54.361Z,79.40
2018-10-21T01:18:23.003Z,79.30
2018-10-21T01:20:51.563Z,79.40
2018-10-21T01:23:20.114Z,79.40
2018-10-21T01:25:48.586Z,79.50
2018-10-21T01:28:17.288Z,79.60
2018-10-21T01:30:45.754Z,79.60
2018-10-21T01:33:14.478Z,79.60
2018-10-21T01:35:42.876Z,79.60
2018-10-21T01:38:11.451Z,79.60
2018-10-21T01:40:42.858Z,79.60
2018-10-21T01:43:29.223Z,79.50
2018-10-21T01:45:58.159Z,79.60
2018-10-21T01:48:27.929Z,79.30
2018-10-21T01:50:56.473Z,79.20
2018-10-21T01:53:25.221Z,79.20
2018-10-21T01:55:53.712Z,79.40
2018-10-21T01:58:22.369Z,79.30
2018-10-21T02:00:50.883Z,79.10
2018-10-21T02:03:19.583Z,79.10
2018-10-21T02:05:48.241Z,79.20
2018-10-21T02:08:16.771Z,79.20
2018-10-21T02:10:45.403Z,79.40
2018-10-21T02:13:13.952Z,79.40
2018-10-21T02:15:42.485Z,79.40
2018-10-21T02:18:11.059Z,79.60
2018-10-21T02:20:39.669Z,79.80
2018-10-21T02:23:08.208Z,79.90
2018-10-21T02:25:36.753Z,79.90
2018-10-21T02:28:05.369Z,80.00
2018-10-21T02:30:33.880Z,79.90
2018-10-21T02:33:02.775Z,79.90
2018-10-21T02:35:31.195Z,79.80
2018-10-21T02:37:59.795Z,79.90
2018-10-21T02:41:45.380Z,79.90
2018-10-21T02:44:18.968Z,80.00
2018-10-21T02:46:48.282Z,80.00
2018-10-21T02:49:17.384Z,80.00
2018-10-21T02:51:51.359Z,79.90
2018-10-21T02:54:28.030Z,79.90
2018-10-21T02:56:56.674Z,79.90
2018-10-21T02:59:25.653Z,80.00
2018-10-21T03:01:54.253Z,80.00
2018-10-21T03:04:22.943Z,79.90
2018-10-21T03:06:51.792Z,79.90
2018-10-21T03:09:20.449Z,79.70
2018-10-21T03:11:48.985Z,79.70
2018-10-21T03:14:17.628Z,79.80
2018-10-21T03:16:46.109Z,79.70
2018-10-21T03:19:14.757Z,79.80
2018-10-21T03:21:43.381Z,79.70
2018-10-21T03:24:11.869Z,79.80
2018-10-21T03:26:40.525Z,79.80
2018-10-21T03:29:09.033Z,79.80
2018-10-21T03:31:37.642Z,79.80
2018-10-21T03:34:06.333Z,79.80
2018-10-21T03:36:34.682Z,79.90
2018-10-21T03:39:03.488Z,80.20
2018-10-21T03:41:31.988Z,80.50
2018-10-21T03:44:00.627Z,80.50
2018-10-21T03:46:29.262Z,80.60
2018-10-21T03:48:58.097Z,80.60
2018-10-21T03:51:26.712Z,80.40
2018-10-21T03:53:55.243Z,80.60
2018-10-21T03:56:23.815Z,80.50
2018-10-21T03:58:53.013Z,80.20
2018-10-21T04:01:21.607Z,80.10
2018-10-21T04:03:51.060Z,80.10
2018-10-21T04:06:20.751Z,80.20
2018-10-21T04:08:49.960Z,80.20
2018-10-21T04:11:18.541Z,80.30
2018-10-21T04:13:47.219Z,80.30
2018-10-21T04:16:15.792Z,80.30
2018-10-21T04:18:44.246Z,80.40
2018-10-21T04:21:12.893Z,80.50
2018-10-21T04:23:44.475Z,80.60
2018-10-21T04:26:15.597Z,80.50
2018-10-21T04:28:45.060Z,80.50
2018-10-21T04:31:13.605Z,80.40
2018-10-21T04:33:43.667Z,81.20
2018-10-21T04:36:16.572Z,80.40
2018-10-21T04:38:56.290Z,80.30
2018-10-21T04:58:30.943Z,80.20
2018-10-21T05:00:59.646Z,80.30
2018-10-21T05:03:28.469Z,80.30
2018-10-21T05:05:56.988Z,80.30
2018-10-21T05:08:26.715Z,80.40
2018-10-21T05:10:57.888Z,80.40
2018-10-21T05:13:26.685Z,80.50
2018-10-21T05:15:55.873Z,80.50
2018-10-21T05:18:24.290Z,80.60
2018-10-21T05:32:24.836Z,80.60
2018-10-21T05:35:13.049Z,80.50
2018-10-21T05:37:41.767Z,80.40
2018-10-21T06:08:50.335Z,80.50
2018-10-21T06:11:19.195Z,80.70
2018-10-21T06:13:48.171Z,80.70
2018-10-21T06:16:18.267Z,80.70
2018-10-21T06:18:46.939Z,80.60
2018-10-21T06:21:15.453Z,81.50
2018-10-21T06:23:44.172Z,81.20
2018-10-21T06:26:21.161Z,81.00
2018-10-21T06:28:49.771Z,80.90
2018-10-21T06:31:18.260Z,81.00
2018-10-21T06:33:46.871Z,80.80
2018-10-21T06:36:15.232Z,80.70
2018-10-21T06:38:43.738Z,80.80
2018-10-21T06:41:12.351Z,81.80
2018-10-21T06:58:05.530Z,80.80
2018-10-21T07:00:33.923Z,80.90
2018-10-21T07:03:02.309Z,81.00
2018-10-21T07:06:43.299Z,81.00
2018-10-21T07:09:11.746Z,80.90
2018-10-21T07:11:40.146Z,80.40
2018-10-21T07:14:08.591Z,80.80
2018-10-21T07:16:45.552Z,80.50
2018-10-21T07:19:14.477Z,80.30
2018-10-21T07:21:43.147Z,80.20
2018-10-21T07:24:11.712Z,80.10
2018-10-21T07:26:40.216Z,80.20
2018-10-21T07:29:08.803Z,80.30
2018-10-21T07:31:37.177Z,80.50
2018-10-21T07:34:05.646Z,80.60
2018-10-21T07:45:23.101Z,80.30
2018-10-21T07:47:51.550Z,80.20
2018-10-21T07:50:20.010Z,80.10
2018-10-21T07:52:48.659Z,80.00
2018-10-21T07:55:32.589Z,79.90
2018-10-21T07:58:01.033Z,79.80
2018-10-21T08:00:29.574Z,79.80
2018-10-21T08:02:58.389Z,79.60
2018-10-21T08:05:38.077Z,79.50
2018-10-21T08:08:11.413Z,79.60
2018-10-21T08:10:39.947Z,79.50
2018-10-21T08:13:09.701Z,79.50
2018-10-21T08:15:38.345Z,79.40
2018-10-21T08:18:07.396Z,79.40
2018-10-21T08:20:36.043Z,79.40
2018-10-21T08:23:06.017Z,79.40
2018-10-21T08:25:35.145Z,79.70
2018-10-21T08:28:03.606Z,79.40
2018-10-21T08:30:31.900Z,79.30
2018-10-21T08:33:00.184Z,79.50
2018-10-21T08:35:28.511Z,79.40
2018-10-21T08:37:57.184Z,79.40
2018-10-21T08:40:25.504Z,79.30
2018-10-21T08:42:53.834Z,79.40
2018-10-21T08:45:22.109Z,79.40
2018-10-21T08:47:50.278Z,79.30
2018-10-21T08:50:23.580Z,79.30
2018-10-21T08:52:51.825Z,79.30
2018-10-21T08:55:20.151Z,79.20
2018-10-21T08:57:48.332Z,79.20
2018-10-21T09:00:17.882Z,79.20
2018-10-21T09:02:46.548Z,79.20
2018-10-21T09:05:17.493Z,79.20
2018-10-21T09:07:46.130Z,79.30
2018-10-21T09:10:15.611Z,79.20
2018-10-21T09:12:44.042Z,79.20
2018-10-21T09:18:03.240Z,79.20
2018-10-21T09:20:31.624Z,79.20
2018-10-21T09:22:59.972Z,79.20
2018-10-21T09:25:28.355Z,79.20
2018-10-21T09:27:56.740Z,79.20
2018-10-21T09:30:25.081Z,79.10
2018-10-21T09:32:54.615Z,79.10
2018-10-21T09:35:24.047Z,79.10
2018-10-21T09:37:52.438Z,79.10
2018-10-21T09:40:21.084Z,78.00
2018-10-21T09:42:49.917Z,78.00
2018-10-21T09:45:20.415Z,77.90
2018-10-21T09:47:48.838Z,77.90
2018-10-21T09:50:17.228Z,77.90
2018-10-21T09:52:45.750Z,77.90
2018-10-21T09:55:22.741Z,77.90
2018-10-21T09:57:51.287Z,77.80
2018-10-21T10:00:25.008Z,77.90
2018-10-21T10:03:04.711Z,77.90
2018-10-21T10:05:33.083Z,77.90
2018-10-21T10:08:01.733Z,77.20
2018-10-21T10:10:30.039Z,77.80
2018-10-21T10:12:58.530Z,77.80
2018-10-21T10:15:26.852Z,77.60
2018-10-21T10:17:55.108Z,77.60
2018-10-21T10:20:23.501Z,77.50
2018-10-21T10:22:51.791Z,77.50
2018-10-21T10:25:20.555Z,77.40
2018-10-21T10:27:48.927Z,77.30
2018-10-21T10:30:17.398Z,77.30
2018-10-21T10:32:45.961Z,77.30
2018-10-21T10:35:15.035Z,77.30
2018-10-21T10:37:43.434Z,77.20
2018-10-21T10:40:13.056Z,77.00
2018-10-21T10:42:41.889Z,76.80
2018-10-21T10:45:10.476Z,76.90
2018-10-21T10:47:39.418Z,76.90
2018-10-21T10:50:09.968Z,76.70
2018-10-21T10:52:38.978Z,76.80
2018-10-21T10:55:07.820Z,76.20
2018-10-21T10:57:36.295Z,76.90
2018-10-21T11:00:05.139Z,76.80
2018-10-21T11:02:34.527Z,76.80
2018-10-21T11:05:03.223Z,76.80
2018-10-21T11:07:31.904Z,76.70
2018-10-21T11:10:01.565Z,76.70
2018-10-21T11:12:30.042Z,76.80
2018-10-21T11:14:58.694Z,76.50
2018-10-21T11:17:27.177Z,76.30
2018-10-21T11:19:55.720Z,76.20
2018-10-21T11:22:24.379Z,76.10
2018-10-21T11:24:52.912Z,76.20
2018-10-21T11:27:21.617Z,76.20
2018-10-21T11:29:50.180Z,76.10
2018-10-21T11:32:18.839Z,76.10
2018-10-21T11:34:47.505Z,75.90
2018-10-21T11:37:17.134Z,75.90
2018-10-21T11:39:45.666Z,75.70
2018-10-21T11:42:14.196Z,75.50
2018-10-21T11:44:43.709Z,75.40
2018-10-21T11:47:12.263Z,75.30
2018-10-21T11:49:40.918Z,75.00
2018-10-21T11:52:10.058Z,74.90
2018-10-21T12:14:46.570Z,74.00
2018-10-21T12:17:15.852Z,73.60
2018-10-21T12:19:44.386Z,74.10
2018-10-21T12:22:13.176Z,74.30
2018-10-21T12:24:41.659Z,74.30
2018-10-21T12:27:10.237Z,74.20
2018-10-21T12:29:38.785Z,74.30
2018-10-21T12:32:07.411Z,74.20
2018-10-21T12:34:35.993Z,74.10
2018-10-21T12:37:04.633Z,74.20
2018-10-21T12:56:37.578Z,73.50
2018-10-21T12:59:06.142Z,73.60
2018-10-21T13:01:34.706Z,73.60
2018-10-21T13:04:03.409Z,73.30
2018-10-21T13:06:32.040Z,73.50
2018-10-21T13:09:00.620Z,73.50
2018-10-21T13:11:29.191Z,73.60
2018-10-21T13:13:57.795Z,73.50
2018-10-21T13:16:26.973Z,73.50
2018-10-21T13:18:55.526Z,73.50
2018-10-21T13:21:24.136Z,73.20
2018-10-21T13:23:52.845Z,73.20
2018-10-21T13:26:21.497Z,73.30
2018-10-21T13:28:50.154Z,73.20
2018-10-21T13:31:18.767Z,73.10
2018-10-21T13:33:47.236Z,73.10
2018-10-21T13:36:15.766Z,72.80
2018-10-21T13:38:44.487Z,72.80
2018-10-21T13:41:13.140Z,72.80
2018-10-21T13:43:41.863Z,72.80
2018-10-21T13:46:10.692Z,72.60
2018-10-21T13:48:39.409Z,72.20
2018-10-21T13:51:08.298Z,72.30
2018-10-21T13:53:36.889Z,72.30
2018-10-21T13:56:05.478Z,71.80
2018-10-21T13:58:33.889Z,71.20
2018-10-21T14:01:02.623Z,71.50
2018-10-21T14:03:31.292Z,71.80
2018-10-21T14:06:00.045Z,72.00
2018-10-21T14:08:29.179Z,72.10
2018-10-21T14:10:57.720Z,72.10
2018-10-21T14:13:26.270Z,72.00
2018-10-21T14:15:54.877Z,71.80
2018-10-21T14:18:23.944Z,71.70
2018-10-21T14:20:52.541Z,71.70
2018-10-21T14:23:21.151Z,72.10
2018-10-21T14:25:49.632Z,72.40
2018-10-21T14:28:18.220Z,72.30
2018-10-21T14:30:46.937Z,72.30
2018-10-21T14:33:15.659Z,72.20
2018-10-21T14:35:44.259Z,72.30
2018-10-21T14:38:12.919Z,72.40
2018-10-21T14:40:41.464Z,72.40
2018-10-21T14:43:10.164Z,72.50
2018-10-21T14:45:38.690Z,72.50
2018-10-21T14:48:07.473Z,72.50
2018-10-21T15:05:09.368Z,72.60
2018-10-21T15:07:38.168Z,72.50
2018-10-21T15:10:08.173Z,72.60
2018-10-21T15:12:36.731Z,72.60
2018-10-21T15:15:05.891Z,72.50
2018-10-21T15:17:34.542Z,72.60
2018-10-21T15:20:03.270Z,72.60
2018-10-21T15:22:31.707Z,72.60
2018-10-21T15:25:00.250Z,72.80
2018-10-21T15:27:28.753Z,72.90
2018-10-21T15:29:57.369Z,72.90
2018-10-21T15:32:25.904Z,72.90
2018-10-21T15:34:54.530Z,72.90
2018-10-21T15:37:23.034Z,73.10
2018-10-21T15:39:51.682Z,73.00
2018-10-21T15:42:20.160Z,73.10
2018-10-21T15:44:48.908Z,73.10
2018-10-21T15:47:17.530Z,73.90
2018-10-21T15:49:46.093Z,73.20
2018-10-21T15:55:23.255Z,73.40
2018-10-21T15:57:51.830Z,73.50
2018-10-21T16:00:20.320Z,73.60
2018-10-21T16:02:48.959Z,73.60
2018-10-21T16:05:17.608Z,73.60
2018-10-21T16:07:46.320Z,73.60
2018-10-21T16:10:14.826Z,73.70
2018-10-21T16:12:43.268Z,73.90
2018-10-21T16:15:14.254Z,73.90
2018-10-21T16:23:28.912Z,73.90
2018-10-21T16:25:57.422Z,74.10
2018-10-21T16:28:25.915Z,74.20
2018-10-21T16:30:54.306Z,74.20
2018-10-21T16:33:31.210Z,74.00
2018-10-21T16:35:59.517Z,73.90
2018-10-21T16:38:28.057Z,73.90
2018-10-21T16:41:05.844Z,73.70
2018-10-21T16:43:34.290Z,73.80
2018-10-21T16:46:02.646Z,73.80
2018-10-21T16:48:30.901Z,73.70
2018-10-21T16:51:10.114Z,73.90
2018-10-21T16:53:38.361Z,73.80
2018-10-21T16:56:06.800Z,73.80
2018-10-21T16:58:35.317Z,73.80
2018-10-21T17:01:03.865Z,73.90
2018-10-21T17:03:32.108Z,74.10
2018-10-21T17:06:09.160Z,74.10
2018-10-21T17:08:37.405Z,74.20
2018-10-21T17:11:05.856Z,74.20
2018-10-21T17:13:34.238Z,73.90
2018-10-21T17:16:03.279Z,74.30
2018-10-21T17:18:32.377Z,74.40
2018-10-21T17:21:01.078Z,74.50
2018-10-21T17:23:29.695Z,74.60
2018-10-21T17:26:19.403Z,74.60
2018-10-21T17:28:48.985Z,74.60
2018-10-21T17:31:17.762Z,75.60
2018-10-21T17:33:46.869Z,74.80
2018-10-21T17:36:15.473Z,74.80
2018-10-21T17:38:44.149Z,74.80
2018-10-21T17:41:13.010Z,74.80
2018-10-21T17:43:41.661Z,74.80
2018-10-21T17:46:11.607Z,74.90
2018-10-21T17:48:40.034Z,74.90
2018-10-21T17:51:10.386Z,74.90
2018-10-21T17:53:43.797Z,75.00
2018-10-21T17:56:14.351Z,75.10
2018-10-21T17:58:42.880Z,75.10
2018-10-21T18:01:11.575Z,75.20
2018-10-21T18:03:41.022Z,75.20
2018-10-21T18:06:10.302Z,75.30
2018-10-21T18:11:30.843Z,75.40
2018-10-21T18:13:59.766Z,75.30
2018-10-21T18:16:28.289Z,75.40
2018-10-21T18:18:56.811Z,75.40
2018-10-21T18:21:25.629Z,75.50
2018-10-21T18:41:14.490Z,76.90
2018-10-21T18:44:01.007Z,77.00
2018-10-21T18:46:33.644Z,77.10
2018-10-21T18:49:03.409Z,77.10
2018-10-21T18:51:32.095Z,77.20
2018-10-21T18:59:43.853Z,77.30
2018-10-21T19:02:12.712Z,77.20
2018-10-21T19:04:40.998Z,77.30
2018-10-21T19:07:09.959Z,77.30
2018-10-21T19:09:40.217Z,77.30
2018-10-21T19:12:08.458Z,77.40
2018-10-21T19:14:36.836Z,77.40
2018-10-21T19:17:05.193Z,77.40
2018-10-21T19:19:37.107Z,77.30
2018-10-21T19:22:05.773Z,77.50
2018-10-21T19:24:34.051Z,77.50
2018-10-21T19:27:02.434Z,77.40
2018-10-21T19:29:31.011Z,77.50
2018-10-21T19:31:59.317Z,77.50
2018-10-21T19:34:30.656Z,77.50
2018-10-21T19:36:59.037Z,77.60
2018-10-21T19:39:27.325Z,77.70
2018-10-21T19:41:55.580Z,77.60
2018-10-21T19:44:23.908Z,77.70
2018-10-21T19:46:52.161Z,77.80
2018-10-21T19:49:20.468Z,77.80
2018-10-21T19:51:48.892Z,77.80
2018-10-21T19:54:17.229Z,77.90
2018-10-21T19:56:45.579Z,77.80
2018-10-21T19:59:14.228Z,77.80
2018-10-21T20:01:42.518Z,77.90
2018-10-21T20:04:10.846Z,77.90
2018-10-21T20:06:39.051Z,78.00
2018-10-21T20:09:08.775Z,78.00
2018-10-21T20:11:38.928Z,78.00
2018-10-21T20:14:07.238Z,78.10
2018-10-21T20:16:35.714Z,78.10
2018-10-21T20:19:04.399Z,78.10
2018-10-21T20:21:32.731Z,78.10
2018-10-21T20:24:01.222Z,78.20
2018-10-21T20:26:30.588Z,78.30
2018-10-21T20:28:58.872Z,78.30
2018-10-21T20:31:27.178Z,78.20
2018-10-21T20:33:55.661Z,78.30
2018-10-21T20:36:25.974Z,78.30
2018-10-21T20:38:54.226Z,78.40
2018-10-21T20:41:22.534Z,78.40
2018-10-21T20:49:34.024Z,78.40
2018-10-21T20:52:02.397Z,78.30
2018-10-21T20:54:38.333Z,78.30
2018-10-21T20:57:10.532Z,78.30
2018-10-21T20:59:40.171Z,78.20
2018-10-21T21:02:09.809Z,78.30
2018-10-21T21:04:43.280Z,78.40
2018-10-21T21:07:11.877Z,78.40
2018-10-21T21:09:40.745Z,78.30
2018-10-21T21:12:09.874Z,78.30
2018-10-21T21:14:38.164Z,78.40
2018-10-21T21:17:06.598Z,77.90
2018-10-21T21:19:35.076Z,78.40
2018-10-21T21:22:03.512Z,78.40
2018-10-21T21:24:31.768Z,78.60
2018-10-21T21:27:00.074Z,78.70
2018-10-21T21:29:28.387Z,78.70
2018-10-21T21:31:56.538Z,78.70
2018-10-21T21:34:25.214Z,78.90
2018-10-21T21:36:53.554Z,78.90
2018-10-21T21:39:21.808Z,78.80
2018-10-21T21:41:50.123Z,79.00
2018-10-21T21:44:18.520Z,79.00
2018-10-21T21:46:46.974Z,79.00
2018-10-21T21:49:15.202Z,79.00
2018-10-21T21:51:43.508Z,79.10
2018-10-21T21:54:13.848Z,79.10
2018-10-21T21:56:42.517Z,79.10
2018-10-21T21:59:11.019Z,78.80
2018-10-21T22:01:56.076Z,78.80
2018-10-21T22:04:24.439Z,78.80
2018-10-21T22:06:52.813Z,78.70
2018-10-21T22:09:21.061Z,78.70
2018-10-21T22:11:49.289Z,79.50
2018-10-21T22:14:28.484Z,78.90
2018-10-21T22:16:56.781Z,78.90
2018-10-21T22:19:24.993Z,78.90
2018-10-21T22:21:54.119Z,79.00
2018-10-21T22:24:22.437Z,78.90
2018-10-21T22:26:50.754Z,78.90
2018-10-21T22:29:19.021Z,79.00
2018-10-21T22:31:47.289Z,79.00
2018-10-21T22:34:15.633Z,79.00
2018-10-21T22:36:44.196Z,79.20
2018-10-21T22:39:12.375Z,79.20
2018-10-21T22:41:40.572Z,79.30
2018-10-21T22:44:08.799Z,79.30
2018-10-21T22:46:37.171Z,79.40
2018-10-21T22:49:05.547Z,79.30
2018-10-21T22:51:33.797Z,79.40
2018-10-21T22:54:02.175Z,79.50
2018-10-21T22:56:34.022Z,79.40
2018-10-21T22:59:02.316Z,79.40
2018-10-21T23:01:30.608Z,79.40
2018-10-21T23:03:58.875Z,79.40
2018-10-21T23:06:27.153Z,79.20
2018-10-21T23:08:56.733Z,79.40
2018-10-21T23:11:25.072Z,79.40
2018-10-21T23:13:53.239Z,79.40
2018-10-21T23:16:21.509Z,79.40
2018-10-21T23:18:49.947Z,79.40
2018-10-21T23:21:18.784Z,79.40
2018-10-21T23:23:47.580Z,79.30
2018-10-21T23:26:15.762Z,79.30
2018-10-21T23:28:43.975Z,79.40
2018-10-21T23:31:12.166Z,79.40
2018-10-21T23:33:40.371Z,79.40
2018-10-21T23:36:08.708Z,79.40
2018-10-21T23:38:37.034Z,79.50
2018-10-21T23:41:05.343Z,79.30
2018-10-21T23:43:45.899Z,79.40
2018-10-21T23:46:14.185Z,79.40
2018-10-21T23:48:42.328Z,79.50
2018-10-21T23:51:10.496Z,79.40
2018-10-21T23:53:38.764Z,79.40
2018-10-21T23:56:06.929Z,79.50
2018-10-21T23:58:35.165Z,79.50
